createdAt,value
2018-06-16T00:00:01.314Z,4.27
2018-06-16T00:02:30.433Z,7.80
2018-06-16T00:04:59.801Z,7.60
2018-06-16T00:07:29.059Z,8.20
2018-06-16T00:09:58.350Z,5.30
2018-06-16T00:12:27.631Z,8.37
2018-06-16T00:14:56.927Z,6.47
2018-06-16T00:17:26.210Z,6.07
2018-06-16T00:19:57.152Z,7.60
2018-06-16T00:22:26.870Z,6.17
2018-06-16T00:25:00.199Z,6.57
2018-06-16T00:27:33.792Z,7.43
2018-06-16T00:30:05.928Z,6.87
2018-06-16T00:32:35.563Z,11.23
2018-06-16T00:35:07.122Z,9.37
2018-06-16T00:37:36.368Z,13.13
2018-06-16T00:40:07.263Z,7.43
2018-06-16T00:42:36.586Z,12.77
2018-06-16T00:45:05.948Z,10.70
2018-06-16T00:47:35.173Z,6.97
2018-06-16T00:50:04.585Z,8.20
2018-06-16T00:52:33.846Z,9.27
2018-06-16T00:55:03.155Z,9.13
2018-06-16T00:57:43.937Z,5.80
2018-06-16T01:00:16.381Z,8.23
2018-06-16T01:02:45.412Z,12.10
2018-06-16T01:05:14.573Z,7.17
2018-06-16T01:07:43.910Z,10.60
2018-06-16T01:10:13.515Z,10.63
2018-06-16T01:12:42.816Z,9.73
2018-06-16T01:15:12.147Z,13.30
2018-06-16T01:17:41.398Z,8.67
2018-06-16T01:20:10.823Z,9.77
2018-06-16T01:22:40.564Z,7.93
2018-06-16T01:25:09.836Z,8.63
2018-06-16T01:27:39.103Z,9.20
2018-06-16T01:30:08.428Z,8.70
2018-06-16T01:32:37.697Z,7.27
2018-06-16T01:35:06.975Z,8.67
2018-06-16T01:37:36.230Z,7.53
2018-06-16T01:40:05.609Z,12.07
2018-06-16T01:42:34.843Z,6.43
2018-06-16T01:45:04.245Z,7.63
2018-06-16T01:47:33.526Z,10.13
2018-06-16T01:50:02.851Z,7.43
2018-06-16T01:52:32.095Z,5.77
2018-06-16T01:55:01.391Z,7.63
2018-06-16T01:57:30.644Z,11.13
2018-06-16T01:59:59.951Z,6.67
2018-06-16T02:02:29.238Z,3.70
2018-06-16T02:04:58.539Z,9.47
2018-06-16T02:07:27.778Z,9.73
2018-06-16T02:09:57.019Z,6.60
2018-06-16T02:12:26.379Z,7.30
2018-06-16T02:14:55.652Z,6.97
2018-06-16T02:17:24.994Z,7.57
2018-06-16T02:19:54.348Z,8.87
2018-06-16T02:22:23.651Z,10.00
2018-06-16T02:24:52.951Z,11.07
2018-06-16T02:27:22.195Z,7.83
2018-06-16T02:29:51.479Z,7.13
2018-06-16T02:32:20.820Z,6.00
2018-06-16T02:34:50.100Z,8.93
2018-06-16T02:37:19.381Z,7.07
2018-06-16T02:39:48.753Z,7.40
2018-06-16T02:42:18.038Z,7.93
2018-06-16T02:44:47.356Z,6.93
2018-06-16T02:47:16.593Z,9.77
2018-06-16T02:49:45.957Z,7.83
2018-06-16T02:52:15.279Z,7.77
2018-06-16T02:54:44.561Z,7.60
2018-06-16T02:57:13.793Z,5.43
2018-06-16T02:59:43.137Z,6.90
2018-06-16T03:02:12.411Z,5.27
2018-06-16T03:04:41.712Z,11.43
2018-06-16T03:07:10.979Z,7.03
2018-06-16T03:09:40.374Z,8.77
2018-06-16T03:12:09.740Z,6.30
2018-06-16T03:14:39.081Z,5.17
2018-06-16T03:17:08.474Z,7.13
2018-06-16T03:19:37.905Z,8.57
2018-06-16T03:22:07.308Z,8.97
2018-06-16T03:24:36.641Z,7.27
2018-06-16T03:27:06.031Z,6.37
2018-06-16T03:29:35.360Z,6.97
2018-06-16T03:32:04.699Z,9.30
2018-06-16T03:34:34.136Z,9.60
2018-06-16T03:37:03.364Z,8.23
2018-06-16T03:39:32.671Z,9.50
2018-06-16T03:42:01.946Z,6.37
2018-06-16T03:44:31.183Z,8.40
2018-06-16T03:47:00.432Z,10.23
2018-06-16T03:49:29.724Z,7.20
2018-06-16T03:51:59.118Z,6.30
2018-06-16T03:54:28.411Z,10.60
2018-06-16T03:56:57.675Z,7.97
2018-06-16T03:59:26.903Z,6.27
2018-06-16T04:01:56.299Z,7.27
2018-06-16T04:04:25.443Z,9.03
2018-06-16T04:06:54.740Z,7.00
2018-06-16T04:09:24.065Z,7.90
2018-06-16T04:11:53.342Z,9.37
2018-06-16T04:14:22.695Z,10.63
2018-06-16T04:16:51.945Z,10.97
2018-06-16T04:19:21.269Z,9.77
2018-06-16T04:21:50.591Z,9.40
2018-06-16T04:24:19.884Z,10.90
2018-06-16T04:26:49.170Z,8.70
2018-06-16T04:29:18.414Z,11.87
2018-06-16T04:31:47.766Z,6.77
2018-06-16T04:34:17.005Z,8.60
2018-06-16T04:36:46.261Z,11.33
2018-06-16T04:39:15.562Z,10.77
2018-06-16T04:41:44.831Z,9.33
2018-06-16T04:44:14.092Z,8.37
2018-06-16T04:46:44.339Z,15.60
2018-06-16T04:49:13.632Z,12.07
2018-06-16T04:51:43.059Z,10.00
2018-06-16T04:54:12.464Z,10.10
2018-06-16T04:56:41.702Z,9.00
2018-06-16T04:59:11.042Z,8.57
2018-06-16T05:01:40.331Z,10.53
2018-06-16T05:04:09.676Z,10.03
2018-06-16T05:06:39.096Z,10.00
2018-06-16T05:09:10.342Z,10.27
2018-06-16T05:11:40.064Z,9.37
2018-06-16T05:14:09.475Z,10.10
2018-06-16T05:16:38.799Z,12.30
2018-06-16T05:19:08.148Z,9.27
2018-06-16T05:21:37.385Z,11.23
2018-06-16T05:24:06.683Z,10.03
2018-06-16T05:26:36.011Z,10.33
2018-06-16T05:29:05.380Z,9.10
2018-06-16T05:31:34.765Z,9.70
2018-06-16T05:34:04.102Z,8.33
2018-06-16T05:36:33.464Z,10.87
2018-06-16T05:39:02.870Z,9.20
2018-06-16T05:41:32.087Z,7.87
2018-06-16T05:44:01.365Z,9.93
2018-06-16T05:46:30.691Z,7.77
2018-06-16T05:48:59.915Z,7.93
2018-06-16T05:51:29.345Z,10.03
2018-06-16T05:53:58.688Z,8.90
2018-06-16T05:56:27.960Z,11.43
2018-06-16T05:58:57.294Z,8.83
2018-06-16T06:01:26.639Z,6.33
2018-06-16T06:03:56.032Z,7.17
2018-06-16T06:06:25.360Z,8.00
2018-06-16T06:08:54.708Z,8.70
2018-06-16T06:11:24.023Z,11.93
2018-06-16T06:13:53.899Z,7.43
2018-06-16T06:16:29.461Z,6.47
2018-06-16T06:19:09.972Z,10.93
2018-06-16T06:21:39.961Z,7.97
2018-06-16T06:24:09.195Z,6.97
2018-06-16T06:26:38.471Z,7.67
2018-06-16T06:29:14.993Z,9.17
2018-06-16T06:31:44.585Z,8.80
2018-06-16T06:34:13.935Z,7.20
2018-06-16T06:36:43.332Z,5.30
2018-06-16T06:39:12.736Z,8.47
2018-06-16T06:41:42.032Z,6.73
2018-06-16T06:44:11.255Z,7.60
2018-06-16T06:46:40.552Z,5.83
2018-06-16T06:49:09.948Z,5.40
2018-06-16T06:51:39.281Z,5.30
2018-06-16T06:54:08.617Z,5.87
2018-06-16T06:56:38.019Z,5.17
2018-06-16T06:59:07.394Z,7.10
2018-06-16T07:01:36.800Z,8.37
2018-06-16T07:04:05.911Z,5.97
2018-06-16T07:06:35.133Z,9.43
2018-06-16T07:09:07.217Z,6.63
2018-06-16T07:11:36.639Z,5.57
2018-06-16T07:14:06.055Z,5.43
2018-06-16T07:16:35.424Z,6.92
2018-06-16T07:19:04.844Z,7.60
2018-06-16T07:21:34.217Z,4.50
2018-06-16T07:24:03.484Z,6.30
2018-06-16T07:26:32.840Z,4.60
2018-06-16T07:29:02.340Z,3.75
2018-06-16T07:31:31.776Z,5.60
2018-06-16T07:34:01.084Z,5.55
2018-06-16T07:36:30.334Z,3.80
2018-06-16T07:38:59.493Z,3.42
2018-06-16T07:41:28.776Z,7.92
2018-06-16T07:43:58.215Z,6.00
2018-06-16T07:46:27.476Z,3.58
2018-06-16T07:48:56.893Z,4.47
2018-06-16T07:51:26.161Z,4.80
2018-06-16T07:53:55.854Z,3.50
2018-06-16T07:56:25.164Z,5.30
2018-06-16T07:58:54.570Z,3.80
2018-06-16T08:01:23.907Z,3.30
2018-06-16T08:03:53.387Z,3.52
2018-06-16T08:06:22.671Z,3.00
2018-06-16T08:08:52.003Z,5.40
2018-06-16T08:11:21.293Z,4.10
2018-06-16T08:13:50.681Z,3.45
2018-06-16T08:16:20.566Z,3.50
2018-06-16T08:18:49.884Z,3.83
2018-06-16T08:21:19.242Z,3.87
2018-06-16T08:23:48.599Z,4.20
2018-06-16T08:26:17.971Z,3.77
2018-06-16T08:28:47.344Z,3.12
2018-06-16T08:31:16.933Z,2.95
2018-06-16T08:33:46.211Z,2.92
2018-06-16T08:36:15.584Z,2.98
2018-06-16T08:38:45.024Z,3.15
2018-06-16T08:41:14.394Z,3.00
2018-06-16T08:43:43.850Z,3.67
2018-06-16T08:46:13.729Z,3.00
2018-06-16T08:48:44.271Z,3.50
2018-06-16T08:51:13.649Z,3.17
2018-06-16T08:53:43.069Z,3.12
2018-06-16T08:56:12.436Z,5.20
2018-06-16T08:58:41.821Z,2.72
2018-06-16T09:01:11.078Z,2.60
2018-06-16T09:09:26.325Z,2.33
2018-06-16T09:11:55.641Z,2.62
2018-06-16T09:14:25.292Z,2.40
2018-06-16T09:16:54.725Z,2.30
2018-06-16T09:19:23.819Z,1.80
2018-06-16T09:21:53.063Z,1.95
2018-06-16T09:24:22.507Z,2.20
2018-06-16T09:26:51.905Z,1.70
2018-06-16T09:29:21.269Z,2.70
2018-06-16T09:31:50.620Z,1.72
2018-06-16T09:34:20.066Z,2.20
2018-06-16T09:36:49.566Z,2.62
2018-06-16T09:39:19.096Z,3.00
2018-06-16T09:41:48.484Z,2.83
2018-06-16T09:44:19.058Z,2.30
2018-06-16T09:46:48.492Z,3.03
2018-06-16T09:49:18.029Z,2.77
2018-06-16T09:51:47.492Z,2.47
2018-06-16T09:54:16.987Z,2.30
2018-06-16T09:56:46.412Z,2.67
2018-06-16T09:59:15.884Z,2.43
2018-06-16T10:01:45.344Z,3.90
2018-06-16T10:04:14.626Z,6.43
2018-06-16T10:06:44.088Z,3.83
2018-06-16T10:09:13.456Z,3.20
2018-06-16T10:11:42.960Z,4.17
2018-06-16T10:14:12.412Z,4.70
2018-06-16T10:16:41.769Z,3.67
2018-06-16T10:19:11.146Z,2.87
2018-06-16T10:21:40.556Z,2.60
2018-06-16T10:24:10.017Z,2.60
2018-06-16T10:26:39.520Z,3.03
2018-06-16T10:29:08.905Z,2.43
2018-06-16T10:31:38.290Z,4.30
2018-06-16T10:34:07.908Z,5.63
2018-06-16T10:36:38.008Z,2.83
2018-06-16T10:39:08.526Z,2.67
2018-06-16T10:41:39.015Z,2.93
2018-06-16T10:44:09.257Z,3.03
2018-06-16T10:46:38.726Z,2.90
2018-06-16T10:49:09.189Z,2.70
2018-06-16T10:51:38.747Z,3.87
2018-06-16T10:54:08.193Z,2.90
2018-06-16T10:56:37.813Z,3.63
2018-06-16T10:59:07.384Z,3.00
2018-06-16T11:01:36.765Z,2.70
2018-06-16T11:04:06.105Z,2.77
2018-06-16T11:06:35.770Z,3.80
2018-06-16T11:09:07.719Z,3.10
2018-06-16T11:11:37.237Z,3.30
2018-06-16T11:14:06.945Z,3.50
2018-06-16T11:16:36.338Z,3.27
2018-06-16T11:19:06.407Z,4.53
2018-06-16T11:21:36.133Z,3.10
2018-06-16T11:24:05.608Z,3.90
2018-06-16T11:26:34.996Z,3.17
2018-06-16T11:29:04.275Z,3.17
2018-06-16T11:31:33.576Z,3.00
2018-06-16T11:34:03.007Z,3.67
2018-06-16T11:36:32.387Z,5.17
2018-06-16T11:39:01.811Z,2.40
2018-06-16T11:41:31.151Z,3.10
2018-06-16T11:44:00.513Z,6.30
2018-06-16T11:46:29.968Z,2.70
2018-06-16T11:48:59.507Z,4.50
2018-06-16T11:51:28.989Z,2.73
2018-06-16T11:53:59.069Z,4.77
2018-06-16T11:56:28.888Z,2.70
2018-06-16T11:58:58.551Z,2.43
2018-06-16T12:01:28.130Z,2.70
2018-06-16T12:03:57.553Z,2.63
2018-06-16T12:06:26.986Z,2.33
2018-06-16T12:08:56.581Z,2.10
2018-06-16T12:11:26.262Z,3.43
2018-06-16T12:13:56.158Z,2.33
2018-06-16T12:16:25.711Z,2.37
2018-06-16T12:18:55.150Z,2.40
2018-06-16T12:21:24.827Z,2.50
2018-06-16T12:23:54.382Z,3.23
2018-06-16T12:26:23.727Z,2.37
2018-06-16T12:28:53.260Z,3.77
2018-06-16T12:31:23.111Z,2.40
2018-06-16T12:33:52.605Z,2.43
2018-06-16T12:36:21.594Z,1.87
2018-06-16T12:38:50.794Z,2.00
2018-06-16T12:41:20.476Z,2.07
2018-06-16T12:43:49.960Z,1.70
2018-06-16T12:46:19.584Z,1.67
2018-06-16T12:48:49.771Z,1.87
2018-06-16T12:51:19.241Z,1.63
2018-06-16T12:53:48.704Z,2.90
2018-06-16T12:56:18.048Z,1.87
2018-06-16T12:58:48.442Z,2.17
2018-06-16T13:01:17.970Z,1.90
2018-06-16T13:03:47.323Z,2.20
2018-06-16T13:06:16.752Z,1.97
2018-06-16T13:08:46.079Z,2.97
2018-06-16T13:11:15.559Z,2.10
2018-06-16T13:13:44.842Z,2.00
2018-06-16T13:16:14.331Z,1.97
2018-06-16T13:18:43.704Z,2.33
2018-06-16T13:21:13.101Z,2.53
2018-06-16T13:23:42.770Z,1.90
2018-06-16T13:26:12.031Z,2.17
2018-06-16T13:28:45.599Z,2.50
2018-06-16T13:31:15.871Z,2.43
2018-06-16T13:33:45.438Z,5.07
2018-06-16T13:36:14.727Z,2.53
2018-06-16T13:38:44.033Z,2.33
2018-06-16T13:41:13.434Z,2.37
2018-06-16T13:43:42.843Z,2.53
2018-06-16T13:46:12.197Z,3.77
2018-06-16T13:48:41.590Z,2.80
2018-06-16T13:51:10.618Z,2.60
2018-06-16T13:53:40.057Z,3.50
2018-06-16T13:56:09.444Z,2.97
2018-06-16T13:58:38.860Z,3.80
2018-06-16T14:01:08.321Z,3.00
2018-06-16T14:03:37.797Z,2.37
2018-06-16T14:06:07.268Z,3.13
2018-06-16T14:08:36.895Z,2.70
2018-06-16T14:11:06.350Z,2.57
2018-06-16T14:13:35.741Z,4.97
2018-06-16T14:16:05.112Z,2.07
2018-06-16T14:18:34.450Z,2.30
2018-06-16T14:21:04.058Z,2.37
2018-06-16T14:23:33.689Z,2.60
2018-06-16T14:26:03.021Z,4.57
2018-06-16T14:28:32.326Z,2.73
2018-06-16T14:31:01.713Z,5.43
2018-06-16T14:33:31.015Z,5.87
2018-06-16T14:36:00.451Z,3.47
2018-06-16T14:38:29.708Z,3.83
2018-06-16T14:40:59.294Z,6.27
2018-06-16T14:43:28.591Z,3.03
2018-06-16T14:45:57.931Z,2.10
2018-06-16T14:48:27.276Z,4.00
2018-06-16T14:50:56.699Z,3.07
2018-06-16T14:53:26.027Z,4.63
2018-06-16T14:55:55.457Z,4.63
2018-06-16T14:58:26.230Z,3.50
2018-06-16T15:00:56.600Z,2.60
2018-06-16T15:03:26.057Z,5.10
2018-06-16T15:05:55.662Z,2.37
2018-06-16T15:08:25.665Z,2.30
2018-06-16T15:10:55.143Z,2.47
2018-06-16T15:13:24.596Z,2.60
2018-06-16T15:15:53.958Z,3.40
2018-06-16T15:18:23.845Z,3.63
2018-06-16T15:20:53.838Z,2.60
2018-06-16T15:23:24.497Z,2.60
2018-06-16T15:25:54.142Z,2.77
2018-06-16T15:28:23.527Z,4.37
2018-06-16T15:30:53.096Z,3.23
2018-06-16T15:33:22.419Z,2.87
2018-06-16T15:35:51.875Z,2.67
2018-06-16T15:38:21.521Z,3.20
2018-06-16T15:40:51.028Z,2.37
2018-06-16T15:43:20.350Z,3.67
2018-06-16T15:45:49.420Z,3.40
2018-06-16T15:48:20.583Z,2.53
2018-06-16T15:50:56.464Z,4.67
2018-06-16T15:53:31.626Z,3.07
2018-06-16T15:56:01.519Z,2.80
2018-06-16T15:58:30.788Z,2.60
2018-06-16T16:01:00.151Z,2.60
2018-06-16T16:03:29.598Z,2.93
2018-06-16T16:05:58.919Z,4.30
2018-06-16T16:08:28.385Z,2.80
2018-06-16T16:10:58.207Z,2.60
2018-06-16T16:13:27.651Z,2.70
2018-06-16T16:15:57.029Z,4.60
2018-06-16T16:18:26.492Z,2.90
2018-06-16T16:20:55.889Z,4.50
2018-06-16T16:23:24.966Z,2.60
2018-06-16T16:25:54.224Z,3.50
2018-06-16T16:28:23.672Z,3.47
2018-06-16T16:30:53.011Z,2.47
2018-06-16T16:33:22.412Z,3.40
2018-06-16T16:35:51.462Z,3.00
2018-06-16T16:38:21.080Z,2.43
2018-06-16T16:40:50.471Z,2.27
2018-06-16T16:43:19.878Z,3.23
2018-06-16T16:45:49.963Z,3.27
2018-06-16T16:48:19.508Z,4.93
2018-06-16T16:50:49.523Z,3.97
2018-06-16T16:53:18.781Z,4.10
2018-06-16T16:55:48.052Z,2.90
2018-06-16T16:58:17.408Z,2.67
2018-06-16T17:00:46.965Z,3.97
2018-06-16T17:03:16.450Z,3.43
2018-06-16T17:05:45.884Z,3.07
2018-06-16T17:08:15.495Z,3.93
2018-06-16T17:10:45.752Z,2.63
2018-06-16T17:13:15.072Z,3.20
2018-06-16T17:15:44.262Z,2.93
2018-06-16T17:18:14.597Z,2.37
2018-06-16T17:20:44.018Z,2.87
2018-06-16T17:23:13.565Z,2.73
2018-06-16T17:25:42.917Z,3.43
2018-06-16T17:28:12.372Z,2.30
2018-06-16T17:30:41.904Z,2.30
2018-06-16T17:33:11.259Z,4.10
2018-06-16T17:35:47.152Z,2.30
2018-06-16T17:38:16.491Z,2.93
2018-06-16T17:40:45.971Z,3.93
2018-06-16T17:43:15.275Z,2.97
2018-06-16T17:45:44.809Z,3.00
2018-06-16T17:48:14.696Z,2.67
2018-06-16T17:50:44.425Z,2.50
2018-06-16T17:53:13.822Z,3.20
2018-06-16T17:55:43.291Z,2.43
2018-06-16T17:58:12.750Z,6.03
2018-06-16T18:00:43.329Z,3.60
2018-06-16T18:13:04.118Z,2.67
2018-06-16T18:15:33.715Z,6.90
2018-06-16T18:18:03.249Z,11.67
2018-06-16T18:20:32.492Z,12.23
2018-06-16T18:23:01.939Z,7.47
2018-06-16T18:25:31.391Z,10.23
2018-06-16T18:28:00.716Z,6.00
2018-06-16T18:30:30.757Z,7.43
2018-06-16T18:33:00.541Z,7.53
2018-06-16T18:35:29.824Z,5.30
2018-06-16T18:37:59.159Z,6.77
2018-06-16T18:40:28.737Z,5.13
2018-06-16T18:43:00.950Z,3.83
2018-06-16T18:45:34.983Z,4.03
2018-06-16T18:48:11.943Z,4.40
2018-06-16T18:50:46.685Z,4.40
2018-06-16T18:53:23.042Z,5.20
2018-06-16T18:56:03.957Z,5.97
2018-06-16T18:58:36.337Z,4.10
2018-06-16T19:01:14.422Z,7.60
2018-06-16T19:03:53.150Z,2.73
2018-06-16T19:06:26.780Z,3.10
2018-06-16T19:09:01.389Z,3.20
2018-06-16T19:11:37.275Z,5.30
2018-06-16T19:14:12.760Z,2.60
2018-06-16T19:16:49.644Z,2.87
2018-06-16T19:19:19.829Z,2.97
2018-06-16T19:21:49.412Z,2.83
2018-06-16T19:24:19.227Z,3.10
2018-06-16T19:26:48.935Z,3.03
2018-06-16T19:29:18.572Z,3.30
2018-06-16T19:31:48.011Z,3.20
2018-06-16T19:34:17.463Z,6.10
2018-06-16T19:36:46.863Z,3.90
2018-06-16T19:39:16.279Z,3.43
2018-06-16T19:41:46.626Z,3.37
2018-06-16T19:44:16.501Z,3.47
2018-06-16T19:46:45.870Z,3.23
2018-06-16T19:49:15.186Z,3.53
2018-06-16T19:51:44.634Z,3.60
2018-06-16T19:54:14.194Z,3.80
2018-06-16T19:56:43.565Z,5.00
2018-06-16T19:59:13.016Z,3.77
2018-06-16T20:01:42.482Z,4.90
2018-06-16T20:04:12.154Z,6.27
2018-06-16T20:06:41.194Z,7.27
2018-06-16T20:09:10.533Z,7.07
2018-06-16T20:11:40.120Z,6.47
2018-06-16T20:14:09.957Z,5.00
2018-06-16T20:16:39.398Z,6.30
2018-06-16T20:19:08.996Z,7.70
2018-06-16T20:21:38.664Z,6.27
2018-06-16T20:24:08.180Z,6.13
2018-06-16T20:26:51.860Z,5.67
2018-06-16T20:29:21.477Z,5.47
2018-06-16T20:31:50.763Z,6.53
2018-06-16T20:34:20.062Z,5.10
2018-06-16T20:36:49.355Z,4.13
2018-06-16T20:39:18.703Z,5.17
2018-06-16T20:41:48.116Z,4.00
2018-06-16T20:44:17.349Z,4.60
2018-06-16T20:46:46.660Z,4.63
2018-06-16T20:49:15.968Z,4.73
2018-06-16T20:51:45.393Z,5.77
2018-06-16T20:54:14.692Z,5.80
2018-06-16T20:56:43.996Z,4.50
2018-06-16T20:59:13.394Z,6.27
2018-06-16T21:01:42.867Z,4.00
2018-06-16T21:04:12.933Z,4.40
2018-06-16T21:06:42.238Z,3.87
2018-06-16T21:09:12.342Z,4.13
2018-06-16T21:11:41.641Z,4.30
2018-06-16T21:14:11.015Z,5.90
2018-06-16T21:16:40.297Z,6.67
2018-06-16T21:19:09.653Z,3.87
2018-06-16T21:21:38.956Z,4.47
2018-06-16T21:24:08.251Z,3.37
2018-06-16T21:26:37.525Z,3.37
2018-06-16T21:29:06.971Z,3.50
2018-06-16T21:31:36.490Z,3.80
2018-06-16T21:34:05.780Z,3.70
2018-06-16T21:36:34.810Z,3.03
2018-06-16T21:39:05.183Z,3.83
2018-06-16T21:41:34.536Z,4.90
2018-06-16T21:44:03.915Z,3.67
2018-06-16T21:46:33.322Z,3.40
2018-06-16T21:49:09.449Z,3.50
2018-06-16T21:51:38.827Z,3.50
2018-06-16T21:54:08.286Z,3.97
2018-06-16T21:56:37.597Z,4.70
2018-06-16T21:59:06.855Z,4.33
2018-06-16T22:01:37.324Z,2.90
2018-06-16T22:04:07.033Z,3.20
2018-06-16T22:06:36.405Z,3.17
2018-06-16T22:09:08.461Z,4.80
2018-06-16T22:11:37.778Z,3.20
2018-06-16T22:14:07.189Z,3.27
2018-06-16T22:16:36.600Z,3.30
2018-06-16T22:19:05.915Z,3.20
2018-06-16T22:21:35.233Z,2.93
2018-06-16T22:24:04.535Z,3.10
2018-06-16T22:26:33.811Z,2.73
2018-06-16T22:29:03.064Z,3.87
2018-06-16T22:31:32.384Z,3.47
2018-06-16T22:34:01.693Z,5.53
2018-06-16T22:36:31.010Z,3.60
2018-06-16T22:39:00.442Z,6.60
2018-06-16T22:41:29.778Z,3.90
2018-06-16T22:43:59.093Z,4.30
2018-06-16T22:46:28.415Z,5.17
2018-06-16T22:48:57.760Z,3.57
2018-06-16T22:51:27.114Z,3.87
2018-06-16T22:53:56.163Z,4.03
2018-06-16T22:56:25.401Z,4.27
2018-06-16T22:58:54.704Z,5.80
2018-06-16T23:01:24.052Z,3.77
2018-06-16T23:03:53.382Z,4.93
2018-06-16T23:06:22.794Z,6.10
2018-06-16T23:08:53.111Z,3.73
2018-06-16T23:11:22.397Z,3.50
2018-06-16T23:13:51.673Z,3.97
2018-06-16T23:16:20.992Z,5.07
2018-06-16T23:18:50.307Z,4.47
2018-06-16T23:21:19.610Z,5.10
2018-06-16T23:23:48.981Z,6.67
2018-06-16T23:26:18.258Z,6.13
2018-06-16T23:28:47.601Z,4.77
2018-06-16T23:31:16.964Z,4.80
2018-06-16T23:33:46.371Z,7.67
2018-06-16T23:36:15.882Z,4.93
2018-06-16T23:38:45.194Z,5.23
2018-06-16T23:41:14.490Z,4.83
2018-06-16T23:43:43.842Z,4.70
2018-06-16T23:46:13.067Z,4.87
2018-06-16T23:48:42.335Z,6.33
2018-06-16T23:51:11.671Z,4.23
2018-06-16T23:53:40.950Z,4.20
2018-06-16T23:56:10.220Z,5.93
2018-06-16T23:58:39.459Z,4.33
